Flight Track Log - Related Links

Times and Time Zones

All times are in EDT time to prevent confusion due to time zone crossing. See the SKW5652 flight status page for this flight to view local times or setup timezone preferences in your user account.

Time Position Orientation Groundspeed Altitude Reporting Facility
EDT Latitude Longitude Course Direction KTS MPH feet Rate Location/Type
Sat 03:50:41 PM 33.8667 -116.5500 342° North 180 207 2,400  Level Southern California TRACON
Sat 03:51:41 PM 33.9167 -116.5667 345° North 240 276 4,600 2,300 Climbing Southern California TRACON
Sat 03:52:41 PM 33.9667 -116.5333 29° Northeast 256 295 7,000 2,156 Climbing Southern California TRACON
Sat 03:53:00 PM 34.1901 -116.5534 338° Northwest  Level FlightAware Approximate
Sat 03:53:49 PM 34.0517 -116.5233 North 281 323 9,200  Level Los Angeles Center
Sat 03:54:00 PM 34.2934 -116.5920 351° North  Level FlightAware Approximate
Sat 03:54:51 PM 34.1425 -116.5331 355° North 298 343 12,100  Level Los Angeles Center
Sat 03:55:00 PM 34.3982 -116.6259 342° North  Level FlightAware Approximate
Sat 03:55:53 PM 34.2242 -116.5678 341° North 308 354 14,400  Level Los Angeles Center
Sat 03:56:55 PM 34.3097 -116.6000 343° North 321 369 16,400 1,887 Climbing Los Angeles Center
Sat 03:57:57 PM 34.3928 -116.6492 334° Northwest 338 389 18,300 1,935 Climbing Los Angeles Center
Sat 03:58:59 PM 34.4192 -116.7575 286° West 321 369 20,400 1,984 Climbing Los Angeles Center
Sat 04:00:01 PM 34.4411 -116.8833 282° West 333 383 22,400 1,258 Climbing Los Angeles Center
Sat 04:01:03 PM 34.4603 -117.0008 281° West 353 406 23,000 290 Climbing Los Angeles Center
Sat 04:02:05 PM 34.4761 -117.0986 281° West 367 422 23,000 1,016 Level Los Angeles Center
Sat 04:03:07 PM 34.5003 -117.2458 281° West 371 427 25,100 1,839 Climbing Los Angeles Center
Sat 04:04:09 PM 34.5203 -117.3667 281° West 367 422 26,800 1,403 Climbing Los Angeles Center
Sat 04:05:11 PM 34.5392 -117.4914 280° West 372 428 28,000 581 Climbing Los Angeles Center
Sat 04:06:13 PM 34.5636 -117.6439 281° West 379 436 28,000  Level Los Angeles Center
Sat 04:07:15 PM 34.5850 -117.7708 282° West 382 440 28,000  Level Los Angeles Center
Sat 04:08:17 PM 34.6058 -117.8928 282° West 369 425 28,000  Level Los Angeles Center
Sat 04:09:19 PM 34.6256 -118.0175 281° West 374 430 28,000  Level Los Angeles Center
Sat 04:10:21 PM 34.6453 -118.1417 281° West 375 432 28,000  Level Los Angeles Center
Sat 04:11:23 PM 34.6642 -118.2667 280° West 376 433 28,000  Level Los Angeles Center
Sat 04:12:25 PM 34.6900 -118.3897 284° West 379 436 28,000  Level Los Angeles Center
Sat 04:13:27 PM 34.7533 -118.5172 301° West 388 447 28,000  Level Los Angeles Center
Sat 04:14:29 PM 34.7969 -118.6069 301° West 386 444 28,000  Level Los Angeles Center
Sat 04:15:31 PM 34.8611 -118.7428 300° West 387 445 28,000  Level Los Angeles Center
Sat 04:16:33 PM 34.9236 -118.8739 300° West 387 445 28,000  Level Los Angeles Center
Sat 04:17:35 PM 34.9761 -118.9894 299° West 390 449 28,000  Level Los Angeles Center
Sat 04:18:37 PM 35.0311 -119.1036 300° West 390 449 28,000  Level Los Angeles Center
Sat 04:19:39 PM 35.0856 -119.2186 300° West 396 456 28,000  Level Los Angeles Center
Sat 04:20:41 PM 35.1400 -119.3328 300° West 389 448 28,000  Level Los Angeles Center
Sat 04:21:43 PM 35.1936 -119.4492 299° West 396 456 28,000  Level Los Angeles Center
Sat 04:22:45 PM 35.2586 -119.5861 300° West 393 452 28,000  Level Los Angeles Center
Sat 04:23:47 PM 35.3119 -119.7008 300° West 388 447 28,000  Level Los Angeles Center
Sat 04:24:49 PM 35.3644 -119.8147 300° West 382 440 28,000  Level Los Angeles Center
Sat 04:25:51 PM 35.4067 -119.9067 299° West 387 445 28,000  Level Los Angeles Center
Sat 04:26:53 PM 35.4697 -120.0447 299° West 391 450 28,000  Level Los Angeles Center
Sat 04:27:55 PM 35.5319 -120.1811 299° West 394 453 28,000  Level Los Angeles Center
Sat 04:28:57 PM 35.5847 -120.2983 299° West 396 456 28,000  Level Los Angeles Center
Sat 04:29:59 PM 35.6372 -120.4153 299° West 394 453 28,000  Level Los Angeles Center
Sat 04:31:01 PM 35.6883 -120.5308 299° West 392 451 28,000  Level Los Angeles Center
Sat 04:32:10 PM 35.7519 -120.6706 299° West 393 452 28,000  Level Oakland Center
Sat 04:33:11 PM 35.8050 -120.7897 299° West 396 456 28,000  Level Oakland Center
Sat 04:34:13 PM 35.8583 -120.9092 299° West 398 458 28,000  Level Oakland Center
Sat 04:35:14 PM 35.9222 -121.0533 299° West 401 461 28,000  Level Oakland Center
Sat 04:36:15 PM 35.9753 -121.1742 299° West 402 463 28,000  Level Oakland Center
Sat 04:37:16 PM 36.0269 -121.2969 298° West 402 463 28,000  Level Oakland Center
Sat 04:38:18 PM 36.0897 -121.4114 304° West 405 466 28,000  Level Oakland Center
Sat 04:39:19 PM 36.1858 -121.4900 327° Northwest 413 475 28,000 -49 Level Oakland Center
Sat 04:40:20 PM 36.2792 -121.5689 326° Northwest 409 471 27,900 -590 Descending Oakland Center
Sat 04:41:21 PM 36.3725 -121.6503 325° Northwest 410 472 26,800 -1,721 Descending Oakland Center
Sat 04:42:22 PM 36.4708 -121.7328 326° Northwest 422 486 24,400 -2,585 Descending Oakland Center
Sat 04:43:24 PM 36.5844 -121.8203 328° Northwest 421 484 21,500 -2,662 Descending Oakland Center
Sat 04:44:35 PM 36.7167 -121.8833 339° North 404 465 18,500 -2,336 Descending Northern Cal TRACON
Sat 04:45:35 PM 36.8167 -121.9333 338° Northwest 390 449 16,400 -2,300 Descending Northern Cal TRACON
Sat 04:46:35 PM 36.9167 -121.9833 338° Northwest 379 436 13,900 -2,400 Descending Northern Cal TRACON
Sat 04:47:35 PM 37.0000 -122.0333 334° Northwest 365 420 11,600 -1,947 Descending Northern Cal TRACON
Sat 04:48:29 PM 37.0833 -122.0500 351° North 334 384 10,200 -947 Descending Northern Cal TRACON
Sat 04:49:29 PM 37.1667 -122.0833 342° North 283 326 9,800 -780 Descending Northern Cal TRACON
Sat 04:50:32 PM 37.2367 -122.0933 354° North 277 319 8,600 -1,306 Descending Oakland Center
Sat 04:51:33 PM 37.3106 -122.1122 349° North 272 313 7,100 -1,623 Descending Oakland Center
Sat 04:52:34 PM 37.4003 -122.1361 348° North 274 315 5,300 -1,475 Descending Oakland Center
Sat 04:53:35 PM 37.4719 -122.1556 348° North 268 308 4,100 -878 Descending Oakland Center
Sat 04:54:37 PM 37.5328 -122.1767 345° North 249 287 3,500 -927 Descending Oakland Center
Sat 04:55:38 PM 37.5581 -122.2328 300° West 204 235 2,200 -1,279 Descending Oakland Center

Login

Don't have an account? Register now (free) for customized features, flight alerts, and more!